Vineyard Haven, Massachusetts
Current Conditions -  °F | °C
As of 10:53 AM on Saturday 22 Nov 2014 (Local Time) from KMVY Reporting Station
Clear Clear  
Wind Chill:   Ceiling: Unl
Heat Index:   Visibility: 10mi
Dew Point: -8°   Wind: 13mph
Humidity: 40%   Direction: 250°WSW
Pressure: 30.37"   Gusts: 26mph
Location:  41.46°N, 70.61°W
Report Text: KMVY 221553Z 25011G23KT 10SM CLR 05/M08 A3037 RMK AO2 SLP286 T00501078
Loading
Personal Weather Stations






























Interactive Weather Map New forecast layout! Learn more

10-Day Weather Forecast

Advertisements
Track Severe Weather on mobile